createdAt,value
2022-11-27T00:00:05.263Z,94.70
2022-11-27T00:02:36.422Z,94.80
2022-11-27T00:05:07.024Z,94.70
2022-11-27T00:07:34.217Z,94.70
2022-11-27T00:10:01.557Z,94.70
2022-11-27T00:12:28.876Z,94.60
2022-11-27T00:14:55.983Z,94.90
2022-11-27T00:17:23.176Z,94.80
2022-11-27T00:19:50.260Z,94.80
2022-11-27T00:22:17.657Z,95.00
2022-11-27T00:24:44.993Z,94.90
2022-11-27T00:27:12.293Z,95.00
2022-11-27T00:29:39.739Z,94.90
2022-11-27T00:32:08.305Z,94.90
2022-11-27T00:34:35.555Z,95.10
2022-11-27T00:37:04.041Z,95.10
2022-11-27T00:39:31.239Z,95.20
2022-11-27T00:41:58.358Z,95.30
2022-11-27T00:44:25.615Z,95.30
2022-11-27T00:46:52.848Z,95.30
2022-11-27T00:49:20.098Z,95.70
2022-11-27T00:51:48.369Z,95.50
2022-11-27T00:54:15.524Z,95.30
2022-11-27T00:56:42.627Z,95.20
2022-11-27T00:59:10.758Z,95.10
2022-11-27T01:01:42.207Z,95.00
2022-11-27T01:04:13.038Z,94.90
2022-11-27T01:06:41.206Z,94.80
2022-11-27T01:09:09.784Z,94.80
2022-11-27T01:11:37.041Z,94.90
2022-11-27T01:14:08.602Z,95.00
2022-11-27T01:16:38.637Z,94.90
2022-11-27T01:19:10.848Z,95.20
2022-11-27T01:21:37.952Z,95.30
2022-11-27T01:24:06.004Z,95.20
2022-11-27T01:26:33.263Z,95.30
2022-11-27T01:29:00.718Z,95.20
2022-11-27T01:31:31.104Z,95.20
2022-11-27T01:34:01.400Z,95.30
2022-11-27T01:36:29.673Z,95.30
2022-11-27T01:38:57.118Z,95.00
2022-11-27T01:41:33.090Z,94.90
2022-11-27T01:44:21.916Z,94.90
2022-11-27T01:46:50.736Z,94.80
2022-11-27T01:49:38.460Z,94.80
2022-11-27T01:52:08.081Z,94.70
2022-11-27T01:54:40.189Z,94.70
2022-11-27T01:57:15.882Z,94.60
2022-11-27T01:59:44.282Z,94.60
2022-11-27T02:02:11.526Z,94.60
2022-11-27T02:04:39.006Z,94.60
2022-11-27T02:07:06.495Z,94.50
2022-11-27T02:09:34.005Z,94.70
2022-11-27T02:12:11.164Z,94.70
2022-11-27T02:14:56.999Z,94.70
2022-11-27T02:17:34.719Z,94.60
2022-11-27T02:20:19.922Z,94.60
2022-11-27T02:23:18.478Z,94.60
2022-11-27T02:26:00.489Z,94.60
2022-11-27T02:28:56.057Z,94.60
2022-11-27T02:31:54.578Z,94.60
2022-11-27T02:34:31.880Z,94.70
2022-11-27T02:37:36.289Z,94.70
2022-11-27T02:40:22.265Z,94.70
2022-11-27T02:43:10.328Z,94.70
2022-11-27T02:45:42.019Z,94.80
2022-11-27T02:48:10.276Z,95.00
2022-11-27T02:50:39.931Z,95.00
2022-11-27T02:53:14.292Z,95.00
2022-11-27T02:55:43.136Z,94.90
2022-11-27T02:58:15.184Z,94.90
2022-11-27T03:00:44.930Z,94.70
2022-11-27T03:03:14.965Z,94.90
2022-11-27T03:05:45.568Z,94.90
2022-11-27T03:08:28.114Z,94.80
2022-11-27T03:11:09.405Z,94.80
2022-11-27T03:13:42.846Z,94.70
2022-11-27T03:16:25.245Z,94.70
2022-11-27T03:18:59.270Z,94.60
2022-11-27T03:21:39.567Z,94.60
2022-11-27T03:24:11.179Z,94.90
2022-11-27T03:26:39.853Z,95.00
2022-11-27T03:29:13.157Z,94.90
2022-11-27T03:31:41.096Z,95.00
2022-11-27T03:34:08.823Z,95.00
2022-11-27T03:36:36.236Z,94.90
2022-11-27T03:39:04.625Z,95.00
2022-11-27T03:41:45.216Z,95.20
2022-11-27T03:44:36.006Z,95.10
2022-11-27T03:47:40.557Z,95.10
2022-11-27T03:50:32.591Z,95.10
2022-11-27T03:53:05.441Z,95.20
2022-11-27T03:55:57.629Z,95.20
2022-11-27T03:58:27.837Z,95.10
2022-11-27T04:00:56.315Z,95.10
2022-11-27T04:03:27.266Z,95.20
2022-11-27T04:05:55.428Z,95.00
2022-11-27T04:08:22.978Z,95.00
2022-11-27T04:10:50.210Z,95.00
2022-11-27T04:13:18.632Z,95.10
2022-11-27T04:15:45.773Z,95.60
2022-11-27T04:18:13.038Z,95.60
2022-11-27T04:20:40.182Z,95.60
2022-11-27T04:23:07.424Z,95.40
2022-11-27T04:25:34.550Z,95.30
2022-11-27T04:28:01.773Z,95.30
2022-11-27T04:30:29.024Z,95.30
2022-11-27T04:32:56.140Z,95.70
2022-11-27T04:35:23.669Z,96.00
2022-11-27T04:37:50.761Z,96.00
2022-11-27T04:40:18.139Z,96.20
2022-11-27T04:42:45.267Z,96.40
2022-11-27T04:45:12.469Z,96.30
2022-11-27T04:47:39.586Z,96.10
2022-11-27T04:50:07.366Z,95.90
2022-11-27T04:52:34.665Z,95.70
2022-11-27T04:55:03.588Z,95.80
2022-11-27T04:57:31.000Z,95.70
2022-11-27T04:59:58.083Z,95.50
2022-11-27T05:02:25.237Z,95.70
2022-11-27T05:04:52.467Z,95.60
2022-11-27T05:07:20.579Z,95.70
2022-11-27T05:09:47.941Z,95.60
2022-11-27T05:12:15.141Z,95.60
2022-11-27T05:14:42.507Z,95.90
2022-11-27T05:17:10.321Z,96.00
2022-11-27T05:19:37.614Z,96.00
2022-11-27T05:22:04.831Z,96.20
2022-11-27T05:24:33.095Z,96.00
2022-11-27T05:27:00.296Z,95.90
2022-11-27T05:29:27.598Z,96.20
2022-11-27T05:31:54.818Z,96.40
2022-11-27T05:34:22.255Z,96.80
2022-11-27T05:36:49.504Z,96.70
2022-11-27T05:39:17.191Z,97.30
2022-11-27T05:41:44.465Z,97.70
2022-11-27T05:44:13.967Z,97.40
2022-11-27T05:46:43.656Z,97.10
2022-11-27T05:49:13.312Z,96.90
2022-11-27T05:51:44.128Z,96.80
2022-11-27T05:54:14.912Z,96.70
2022-11-27T05:56:42.137Z,96.90
2022-11-27T05:59:10.967Z,96.70
2022-11-27T06:01:38.336Z,97.20
2022-11-27T06:04:05.674Z,97.10
2022-11-27T06:06:32.775Z,97.10
2022-11-27T06:09:00.773Z,97.50
2022-11-27T06:11:28.258Z,97.30
2022-11-27T06:13:55.599Z,97.20
2022-11-27T06:16:24.323Z,97.10
2022-11-27T06:18:53.747Z,97.40
2022-11-27T06:21:22.198Z,97.30
2022-11-27T06:23:53.083Z,97.50
2022-11-27T06:26:26.211Z,97.30
2022-11-27T06:28:54.691Z,97.30
2022-11-27T06:31:25.792Z,97.30
2022-11-27T06:33:54.369Z,97.30
2022-11-27T06:36:23.920Z,97.40
2022-11-27T06:38:51.382Z,97.40
2022-11-27T06:41:21.738Z,97.40
2022-11-27T06:43:48.964Z,97.50
2022-11-27T06:46:19.308Z,97.80
2022-11-27T06:48:47.947Z,97.80
2022-11-27T06:51:17.744Z,97.80
2022-11-27T06:53:45.026Z,97.90
2022-11-27T06:56:15.368Z,97.80
2022-11-27T06:58:43.031Z,98.00
2022-11-27T07:01:15.747Z,98.00
2022-11-27T07:03:43.077Z,98.00
2022-11-27T07:06:13.713Z,98.00
2022-11-27T07:08:41.266Z,97.90
2022-11-27T07:11:13.491Z,98.10
2022-11-27T07:13:42.265Z,98.10
2022-11-27T07:16:11.257Z,98.20
2022-11-27T07:18:45.235Z,98.00
2022-11-27T07:21:12.934Z,97.90
2022-11-27T07:23:40.258Z,97.80
2022-11-27T07:26:09.540Z,97.90
2022-11-27T07:28:37.185Z,97.80
2022-11-27T07:31:04.767Z,97.90
2022-11-27T07:33:32.741Z,98.00
2022-11-27T07:36:20.161Z,98.20
2022-11-27T07:38:49.260Z,98.10
2022-11-27T07:41:16.815Z,98.10
2022-11-27T07:43:44.887Z,98.20
2022-11-27T07:46:23.716Z,98.10
2022-11-27T07:48:51.441Z,98.10
2022-11-27T07:51:20.927Z,97.90
2022-11-27T07:53:51.861Z,97.90
2022-11-27T07:56:19.414Z,97.80
2022-11-27T07:58:47.139Z,97.60
2022-11-27T08:01:17.287Z,97.50
2022-11-27T08:03:44.626Z,97.60
2022-11-27T08:06:23.712Z,97.20
2022-11-27T08:08:51.947Z,96.80
2022-11-27T08:11:29.752Z,97.00
2022-11-27T08:14:02.181Z,96.90
2022-11-27T08:16:30.191Z,96.60
2022-11-27T08:18:57.737Z,96.60
2022-11-27T08:21:25.200Z,96.50
2022-11-27T08:23:52.390Z,96.20
2022-11-27T08:26:20.983Z,96.30
2022-11-27T08:28:48.413Z,96.00
2022-11-27T08:31:15.778Z,95.60
2022-11-27T08:33:43.261Z,95.60
2022-11-27T08:36:16.354Z,95.50
2022-11-27T08:38:46.163Z,95.90
2022-11-27T08:41:13.404Z,95.70
2022-11-27T08:43:40.615Z,95.00
2022-11-27T08:46:08.069Z,95.20
2022-11-27T08:48:35.999Z,94.60
2022-11-27T08:51:11.709Z,95.30
2022-11-27T08:53:39.555Z,94.50
2022-11-27T08:56:08.999Z,94.30
2022-11-27T08:58:36.428Z,94.60
2022-11-27T09:01:12.757Z,94.10
2022-11-27T09:03:40.128Z,94.00
2022-11-27T09:06:13.243Z,93.90
2022-11-27T09:08:41.987Z,94.20
2022-11-27T09:11:10.094Z,93.70
2022-11-27T09:13:37.796Z,93.20
2022-11-27T09:16:06.442Z,93.10
2022-11-27T09:18:34.159Z,92.70
2022-11-27T09:21:05.242Z,93.00
2022-11-27T09:23:32.551Z,93.40
2022-11-27T09:26:11.167Z,93.40
2022-11-27T09:28:43.773Z,92.40
2022-11-27T09:31:13.968Z,91.70
2022-11-27T09:33:48.076Z,91.80
2022-11-27T09:36:21.343Z,90.80
2022-11-27T09:38:49.140Z,92.20
2022-11-27T09:41:20.538Z,89.00
2022-11-27T09:43:59.597Z,87.80
2022-11-27T09:46:31.998Z,86.70
2022-11-27T09:49:02.452Z,85.70
2022-11-27T09:51:55.149Z,85.80
2022-11-27T09:54:37.627Z,83.80
2022-11-27T09:57:06.338Z,83.60
2022-11-27T09:59:44.893Z,82.00
2022-11-27T10:02:26.634Z,79.70
2022-11-27T10:07:54.008Z,79.50
2022-11-27T10:10:34.229Z,80.30
2022-11-27T10:13:29.921Z,82.50
2022-11-27T10:16:05.677Z,81.30
2022-11-27T10:18:40.397Z,80.10
2022-11-27T10:21:45.120Z,81.20
2022-11-27T10:24:37.679Z,82.20
2022-11-27T10:27:17.856Z,83.80
2022-11-27T10:29:52.947Z,83.50
2022-11-27T10:32:53.581Z,83.60
2022-11-27T10:35:17.825Z,83.40
2022-11-27T10:37:58.144Z,82.00
2022-11-27T10:40:45.982Z,82.80
2022-11-27T10:43:20.247Z,83.60
2022-11-27T10:45:59.528Z,81.60
2022-11-27T10:48:28.540Z,82.40
2022-11-27T10:50:56.331Z,81.60
2022-11-27T10:53:34.806Z,81.20
2022-11-27T10:56:04.685Z,80.80
2022-11-27T10:58:40.854Z,80.40
2022-11-27T11:01:14.294Z,79.00
2022-11-27T11:03:41.561Z,79.70
2022-11-27T11:06:22.000Z,79.50
2022-11-27T11:09:03.894Z,80.70
2022-11-27T11:11:31.442Z,81.00
2022-11-27T11:13:58.664Z,81.00
2022-11-27T11:16:34.849Z,81.10
2022-11-27T11:19:04.023Z,79.80
2022-11-27T11:21:42.647Z,80.80
2022-11-27T11:24:28.759Z,80.00
2022-11-27T11:26:59.436Z,80.00
2022-11-27T11:29:38.910Z,80.60
2022-11-27T11:32:13.436Z,77.20
2022-11-27T11:34:47.137Z,76.40
2022-11-27T11:37:30.247Z,76.40
2022-11-27T11:39:57.340Z,77.10
2022-11-27T11:42:31.320Z,77.90
2022-11-27T11:45:19.181Z,79.10
2022-11-27T11:47:50.889Z,79.20
2022-11-27T11:50:34.409Z,77.00
2022-11-27T11:53:16.686Z,75.80
2022-11-27T11:55:48.929Z,77.20
2022-11-27T11:58:24.197Z,74.40
2022-11-27T12:01:25.795Z,74.40
2022-11-27T12:04:08.692Z,74.00
2022-11-27T12:06:47.936Z,73.50
2022-11-27T12:09:31.755Z,74.30
2022-11-27T12:12:30.300Z,75.20
2022-11-27T12:15:05.173Z,71.60
2022-11-27T12:17:41.364Z,74.30
2022-11-27T12:20:17.540Z,73.10
2022-11-27T12:23:31.353Z,73.30
2022-11-27T12:26:24.370Z,73.80
2022-11-27T12:29:04.743Z,68.80
2022-11-27T12:31:45.315Z,70.60
2022-11-27T12:34:24.063Z,71.30
2022-11-27T12:37:03.236Z,72.10
2022-11-27T12:39:43.502Z,69.90
2022-11-27T12:42:30.027Z,65.40
2022-11-27T12:45:04.411Z,69.00
2022-11-27T12:47:40.721Z,65.10
2022-11-27T12:50:34.126Z,67.70
2022-11-27T12:53:24.522Z,66.90
2022-11-27T12:56:15.005Z,68.40
2022-11-27T12:58:51.190Z,69.20
2022-11-27T13:01:29.241Z,69.00
2022-11-27T13:04:17.429Z,69.60
2022-11-27T13:07:21.728Z,68.80
2022-11-27T13:10:00.979Z,67.90
2022-11-27T13:12:49.861Z,68.90
2022-11-27T13:15:24.156Z,68.60
2022-11-27T13:17:58.623Z,68.90
2022-11-27T13:20:33.994Z,66.60
2022-11-27T13:23:01.374Z,65.20
2022-11-27T13:25:31.211Z,65.50
2022-11-27T13:27:59.540Z,64.80
2022-11-27T13:30:32.501Z,66.00
2022-11-27T13:33:06.440Z,66.30
2022-11-27T13:35:42.696Z,66.50
2022-11-27T13:38:14.889Z,66.40
2022-11-27T13:40:45.600Z,66.00
2022-11-27T13:43:41.487Z,66.00
2022-11-27T13:46:25.730Z,66.00
2022-11-27T13:48:57.744Z,65.60
2022-11-27T13:51:31.398Z,64.70
2022-11-27T13:54:13.226Z,65.50
2022-11-27T13:56:40.689Z,65.20
2022-11-27T13:59:23.010Z,63.60
2022-11-27T14:01:54.523Z,64.30
2022-11-27T14:04:21.731Z,64.10
2022-11-27T14:07:04.695Z,63.90
2022-11-27T14:09:38.738Z,63.40
2022-11-27T14:12:22.656Z,63.40
2022-11-27T14:15:10.555Z,64.10
2022-11-27T14:17:46.404Z,63.90
2022-11-27T14:20:17.181Z,64.00
2022-11-27T14:23:13.168Z,64.20
2022-11-27T14:25:41.555Z,64.30
2022-11-27T14:28:16.879Z,64.80
2022-11-27T14:30:48.641Z,65.10
2022-11-27T14:33:19.570Z,65.00
2022-11-27T14:35:56.310Z,65.30
2022-11-27T14:38:25.312Z,65.40
2022-11-27T14:40:54.337Z,65.40
2022-11-27T14:43:25.442Z,65.60
2022-11-27T14:45:57.901Z,65.60
2022-11-27T14:48:27.277Z,65.60
2022-11-27T14:50:56.151Z,65.40
2022-11-27T14:53:26.583Z,65.00
2022-11-27T14:55:57.048Z,65.70
2022-11-27T14:58:27.551Z,65.70
2022-11-27T15:01:07.970Z,65.70
2022-11-27T15:03:35.615Z,65.90
2022-11-27T15:06:12.349Z,66.60
2022-11-27T15:08:39.940Z,66.00
2022-11-27T15:11:29.989Z,66.40
2022-11-27T15:14:03.352Z,66.60
2022-11-27T15:16:32.179Z,68.20
2022-11-27T15:19:04.257Z,68.50
2022-11-27T15:21:36.872Z,69.10
2022-11-27T15:24:04.379Z,70.00
2022-11-27T15:26:40.018Z,71.00
2022-11-27T15:29:46.220Z,72.10
2022-11-27T15:32:58.640Z,72.60
2022-11-27T15:35:32.615Z,73.10
2022-11-27T15:38:08.376Z,74.90
2022-11-27T15:40:38.235Z,75.40
2022-11-27T15:43:15.837Z,75.20
2022-11-27T15:45:44.419Z,76.60
2022-11-27T15:48:16.015Z,76.60
2022-11-27T15:50:48.401Z,76.60
2022-11-27T15:53:18.997Z,77.50
2022-11-27T15:55:49.201Z,78.20
2022-11-27T15:58:16.274Z,77.40
2022-11-27T16:00:43.865Z,77.90
2022-11-27T16:03:11.222Z,78.30
2022-11-27T16:05:38.276Z,78.20
2022-11-27T16:08:05.955Z,78.40
2022-11-27T16:10:39.951Z,78.80
2022-11-27T16:13:10.180Z,79.00
2022-11-27T16:15:37.396Z,79.00
2022-11-27T16:18:04.784Z,80.10
2022-11-27T16:20:32.119Z,79.80
2022-11-27T16:23:02.565Z,79.80
2022-11-27T16:25:29.712Z,79.80
2022-11-27T16:28:02.237Z,79.90
2022-11-27T16:30:30.649Z,80.00
2022-11-27T16:32:59.242Z,80.50
2022-11-27T16:35:26.487Z,80.50
2022-11-27T16:37:53.570Z,80.60
2022-11-27T16:40:22.336Z,80.80
2022-11-27T16:42:50.252Z,80.80
2022-11-27T16:45:20.482Z,81.10
2022-11-27T16:47:50.542Z,80.70
2022-11-27T16:50:17.686Z,81.00
2022-11-27T16:52:44.868Z,81.30
2022-11-27T16:55:13.055Z,81.20
2022-11-27T16:57:40.264Z,81.70
2022-11-27T17:00:08.051Z,81.80
2022-11-27T17:02:35.371Z,82.00
2022-11-27T17:05:04.207Z,82.20
2022-11-27T17:07:31.413Z,82.40
2022-11-27T17:09:58.583Z,82.40
2022-11-27T17:12:25.862Z,82.80
2022-11-27T17:14:54.234Z,82.70
2022-11-27T17:17:21.526Z,83.00
2022-11-27T17:19:49.286Z,83.20
2022-11-27T17:22:16.590Z,83.40
2022-11-27T17:24:43.740Z,83.50
2022-11-27T17:27:10.993Z,83.40
2022-11-27T17:29:38.196Z,84.10
2022-11-27T17:32:08.630Z,83.90
2022-11-27T17:34:35.812Z,84.00
2022-11-27T17:37:03.074Z,84.30
2022-11-27T17:39:30.404Z,84.40
2022-11-27T17:41:57.675Z,84.60
2022-11-27T17:44:24.775Z,84.80
2022-11-27T17:46:51.801Z,84.80
2022-11-27T17:49:19.723Z,85.50
2022-11-27T17:51:46.967Z,84.80
2022-11-27T17:54:14.202Z,84.90
2022-11-27T17:56:41.402Z,84.90
2022-11-27T17:59:08.588Z,84.90
2022-11-27T18:01:35.976Z,84.80
2022-11-27T18:04:04.389Z,85.10
2022-11-27T18:06:33.279Z,85.00
2022-11-27T18:09:00.710Z,85.00
2022-11-27T18:11:31.022Z,85.20
2022-11-27T18:13:58.331Z,85.40
2022-11-27T18:16:29.310Z,85.50
2022-11-27T18:19:02.137Z,85.60
2022-11-27T18:21:29.550Z,85.60
2022-11-27T18:24:22.677Z,85.60
2022-11-27T18:29:34.292Z,85.70
2022-11-27T18:32:01.780Z,85.60
2022-11-27T18:34:29.811Z,85.90
2022-11-27T18:36:59.588Z,85.90
2022-11-27T18:39:27.915Z,85.90
2022-11-27T18:41:55.081Z,85.80
2022-11-27T18:44:22.196Z,86.50
2022-11-27T18:46:49.652Z,86.00
2022-11-27T18:49:16.902Z,85.90
2022-11-27T18:51:45.086Z,86.10
2022-11-27T18:54:12.332Z,86.10
2022-11-27T18:56:41.091Z,86.20
2022-11-27T18:59:08.427Z,86.20
2022-11-27T19:01:41.794Z,86.10
2022-11-27T19:04:11.504Z,86.10
2022-11-27T19:06:39.486Z,86.00
2022-11-27T19:09:09.211Z,86.00
2022-11-27T19:11:36.574Z,86.20
2022-11-27T19:14:05.071Z,86.20
2022-11-27T19:16:46.270Z,86.20
2022-11-27T19:22:07.960Z,86.20
2022-11-27T19:24:36.010Z,86.40
2022-11-27T19:27:03.614Z,86.40
2022-11-27T19:29:31.322Z,86.40
2022-11-27T19:32:01.080Z,86.30
2022-11-27T19:34:28.945Z,86.20
2022-11-27T19:36:58.425Z,86.30
2022-11-27T19:39:27.275Z,86.40
2022-11-27T19:41:56.033Z,86.40
2022-11-27T19:44:23.491Z,86.40
2022-11-27T19:46:50.800Z,86.50
2022-11-27T19:49:19.286Z,86.70
2022-11-27T19:51:46.968Z,86.50
2022-11-27T19:54:15.673Z,86.60
2022-11-27T19:56:43.248Z,86.40
2022-11-27T19:59:14.470Z,86.60
2022-11-27T20:01:42.517Z,86.50
2022-11-27T20:04:11.919Z,86.70
2022-11-27T20:06:39.906Z,86.50
2022-11-27T20:09:07.915Z,86.40
2022-11-27T20:11:38.340Z,86.40
2022-11-27T20:14:06.594Z,86.30
2022-11-27T20:16:35.458Z,86.30
2022-11-27T20:19:06.438Z,86.40
2022-11-27T20:21:34.172Z,86.30
2022-11-27T20:24:02.188Z,86.40
2022-11-27T20:26:30.863Z,86.50
2022-11-27T20:28:58.820Z,86.60
2022-11-27T20:31:29.622Z,86.60
2022-11-27T20:34:00.820Z,86.60
2022-11-27T20:36:32.159Z,86.40
2022-11-27T20:39:01.149Z,86.30
2022-11-27T20:41:28.812Z,86.40
2022-11-27T20:44:01.502Z,86.40
2022-11-27T20:46:28.892Z,86.40
2022-11-27T20:48:56.726Z,86.30
2022-11-27T20:51:28.803Z,86.40
2022-11-27T20:53:58.393Z,86.40
2022-11-27T20:56:26.352Z,86.40
2022-11-27T20:58:54.128Z,86.40
2022-11-27T21:01:30.401Z,86.30
2022-11-27T21:03:59.166Z,86.40
2022-11-27T21:06:29.575Z,86.40
2022-11-27T21:09:04.194Z,86.50
2022-11-27T21:11:32.732Z,86.60
2022-11-27T21:14:06.214Z,86.40
2022-11-27T21:16:35.884Z,86.70
2022-11-27T21:19:08.813Z,86.80
2022-11-27T21:21:36.122Z,86.80
2022-11-27T21:24:03.782Z,87.00
2022-11-27T21:26:31.068Z,87.00
2022-11-27T21:28:58.429Z,87.00
2022-11-27T21:31:27.296Z,87.30
2022-11-27T21:33:56.577Z,87.20
2022-11-27T21:36:26.602Z,87.10
2022-11-27T21:38:54.510Z,87.00
2022-11-27T21:41:21.753Z,87.90
2022-11-27T21:43:53.656Z,87.20
2022-11-27T21:46:24.727Z,87.40
2022-11-27T21:48:53.487Z,87.40
2022-11-27T21:51:21.628Z,87.50
2022-11-27T21:53:53.514Z,87.60
2022-11-27T21:56:22.801Z,87.80
2022-11-27T21:58:50.239Z,87.70
2022-11-27T22:01:22.190Z,87.80
2022-11-27T22:03:54.758Z,87.80
2022-11-27T22:06:24.870Z,87.60
2022-11-27T22:08:54.077Z,87.70
2022-11-27T22:11:24.734Z,87.70
2022-11-27T22:13:53.870Z,87.80
2022-11-27T22:16:24.666Z,87.80
2022-11-27T22:18:54.564Z,87.80
2022-11-27T22:21:22.387Z,88.00
2022-11-27T22:23:49.902Z,88.10
2022-11-27T22:26:19.219Z,88.10
2022-11-27T22:28:46.977Z,88.30
2022-11-27T22:31:23.061Z,88.30
2022-11-27T22:33:50.600Z,88.50
2022-11-27T22:36:25.294Z,88.60
2022-11-27T22:38:55.519Z,88.70
2022-11-27T22:41:26.070Z,88.60
2022-11-27T22:43:53.444Z,88.60
2022-11-27T22:46:25.300Z,88.60
2022-11-27T22:48:54.875Z,88.60
2022-11-27T22:51:25.431Z,88.60
2022-11-27T22:53:53.063Z,88.70
2022-11-27T22:56:20.555Z,88.90
2022-11-27T22:58:48.123Z,88.90
2022-11-27T23:01:20.488Z,88.90
2022-11-27T23:03:47.676Z,89.10
2022-11-27T23:06:16.710Z,89.10
2022-11-27T23:08:45.652Z,88.90
2022-11-27T23:11:19.515Z,88.90
2022-11-27T23:13:49.842Z,88.90
2022-11-27T23:16:18.502Z,88.70
2022-11-27T23:18:46.460Z,88.80
2022-11-27T23:21:20.308Z,88.90
2022-11-27T23:23:48.544Z,88.80
2022-11-27T23:26:21.671Z,88.80
2022-11-27T23:28:51.270Z,88.80
2022-11-27T23:31:30.831Z,89.00
2022-11-27T23:34:03.405Z,89.10
2022-11-27T23:36:33.201Z,89.20
2022-11-27T23:39:03.866Z,89.60
2022-11-27T23:41:34.214Z,89.90
2022-11-27T23:44:02.076Z,90.00
2022-11-27T23:46:30.256Z,90.00
2022-11-27T23:48:59.905Z,90.10
2022-11-27T23:51:30.962Z,90.00
2022-11-27T23:53:59.686Z,90.10
2022-11-27T23:56:30.824Z,90.10
2022-11-27T23:58:58.880Z,90.10
